createdAt,value
2023-08-15T00:01:40.780Z,97871.96
2023-08-15T00:04:11.911Z,97873.80
2023-08-15T00:06:43.032Z,97871.85
2023-08-15T00:09:14.091Z,97871.55
2023-08-15T00:11:45.129Z,97870.08
2023-08-15T00:14:17.189Z,97870.35
2023-08-15T00:16:48.549Z,97866.14
2023-08-15T00:19:19.708Z,97863.98
2023-08-15T00:21:50.827Z,97862.60
2023-08-15T00:24:21.919Z,97859.80
2023-08-15T00:26:52.953Z,97859.40
2023-08-15T00:29:24.179Z,97858.76
2023-08-15T00:31:55.111Z,97857.68
2023-08-15T00:34:26.257Z,97858.52
2023-08-15T00:36:57.374Z,97858.30
2023-08-15T00:39:28.363Z,97858.47
2023-08-15T00:42:00.549Z,97857.54
2023-08-15T00:44:31.551Z,97861.15
2023-08-15T00:47:02.627Z,97858.39
2023-08-15T00:49:33.561Z,97857.69
2023-08-15T00:52:06.161Z,97859.64
2023-08-15T00:54:38.089Z,97857.80
2023-08-15T00:57:11.590Z,97858.83
2023-08-15T00:59:44.023Z,97862.64
2023-08-15T01:02:15.976Z,97867.00
2023-08-15T01:04:48.402Z,97865.70
2023-08-15T01:07:20.406Z,97868.77
2023-08-15T01:09:52.104Z,97871.78
2023-08-15T01:12:31.369Z,97873.98
2023-08-15T01:15:07.116Z,97871.73
2023-08-15T01:17:43.707Z,97870.33
2023-08-15T01:20:19.928Z,97868.52
2023-08-15T01:22:54.480Z,97871.00
2023-08-15T01:25:27.440Z,97870.75
2023-08-15T01:27:58.452Z,97870.55
2023-08-15T01:30:29.769Z,97872.67
2023-08-15T01:33:09.429Z,97869.86
2023-08-15T01:35:45.374Z,97871.02
2023-08-15T01:38:24.032Z,97866.50
2023-08-15T01:40:57.796Z,97869.73
2023-08-15T01:43:30.522Z,97869.96
2023-08-15T01:46:02.782Z,97871.77
2023-08-15T01:48:33.926Z,97873.35
2023-08-15T01:51:05.219Z,97873.46
2023-08-15T01:53:37.158Z,97872.04
2023-08-15T01:56:08.604Z,97873.16
2023-08-15T01:58:39.733Z,97874.42
2023-08-15T02:01:10.851Z,97877.41
2023-08-15T02:03:42.052Z,97868.41
2023-08-15T02:06:13.114Z,97865.04
2023-08-15T02:08:44.292Z,97866.31
2023-08-15T02:11:15.531Z,97865.20
2023-08-15T02:13:46.855Z,97859.98
2023-08-15T02:16:19.218Z,97859.84
2023-08-15T02:18:50.389Z,97860.73
2023-08-15T02:21:21.481Z,97858.73
2023-08-15T02:23:52.635Z,97856.78
2023-08-15T02:26:24.741Z,97857.45
2023-08-15T02:28:56.012Z,97859.02
2023-08-15T02:31:31.728Z,97855.01
2023-08-15T02:34:03.073Z,97854.25
2023-08-15T02:36:34.129Z,97848.42
2023-08-15T02:39:05.267Z,97847.84
2023-08-15T02:41:36.459Z,97843.27
2023-08-15T02:44:08.093Z,97839.45
2023-08-15T02:46:39.169Z,97840.20
2023-08-15T02:49:10.618Z,97843.19
2023-08-15T02:51:41.573Z,97843.61
2023-08-15T02:54:13.252Z,97848.79
2023-08-15T02:56:44.257Z,97848.97
2023-08-15T02:59:15.348Z,97848.46
2023-08-15T03:01:46.321Z,97845.84
2023-08-15T03:04:17.429Z,97843.59
2023-08-15T03:06:48.635Z,97847.11
2023-08-15T03:09:19.722Z,97844.60
2023-08-15T03:11:50.713Z,97840.80
2023-08-15T03:14:21.861Z,97843.73
2023-08-15T03:16:52.942Z,97838.30
2023-08-15T03:19:24.112Z,97838.47
2023-08-15T03:21:55.006Z,97841.53
2023-08-15T03:24:26.103Z,97839.12
2023-08-15T03:26:57.116Z,97840.64
2023-08-15T03:29:28.232Z,97842.21
2023-08-15T03:32:00.357Z,97843.41
2023-08-15T03:34:33.382Z,97841.73
2023-08-15T03:37:04.395Z,97844.56
2023-08-15T03:39:35.602Z,97847.95
2023-08-15T03:42:07.235Z,97850.95
2023-08-15T03:44:38.281Z,97854.52
2023-08-15T03:47:09.586Z,97858.45
2023-08-15T03:49:40.611Z,97854.88
2023-08-15T03:52:12.002Z,97853.40
2023-08-15T03:54:42.950Z,97854.67
2023-08-15T03:57:13.981Z,97855.06
2023-08-15T03:59:44.956Z,97852.92
2023-08-15T04:02:16.132Z,97851.54
2023-08-15T04:04:47.213Z,97851.39
2023-08-15T04:07:18.339Z,97851.66
2023-08-15T04:09:49.450Z,97853.19
2023-08-15T04:12:20.470Z,97852.51
2023-08-15T04:14:51.500Z,97850.73
2023-08-15T04:17:22.830Z,97850.33
2023-08-15T04:19:54.325Z,97850.30
2023-08-15T04:22:25.639Z,97848.33
2023-08-15T04:24:56.642Z,97849.91
2023-08-15T04:27:27.863Z,97847.95
2023-08-15T04:29:59.480Z,97849.91
2023-08-15T04:32:30.622Z,97850.62
2023-08-15T04:35:01.976Z,97851.61
2023-08-15T04:37:34.260Z,97853.43
2023-08-15T04:40:06.352Z,97854.27
2023-08-15T04:42:37.690Z,97855.64
2023-08-15T04:45:10.356Z,97854.13
2023-08-15T04:47:41.421Z,97857.30
2023-08-15T04:50:13.523Z,97852.63
2023-08-15T04:52:44.452Z,97849.68
2023-08-15T04:55:15.845Z,97853.23
2023-08-15T04:57:47.018Z,97853.12
2023-08-15T05:00:20.457Z,97850.14
2023-08-15T05:02:52.112Z,97850.11
2023-08-15T05:05:23.184Z,97852.91
2023-08-15T05:07:54.276Z,97854.33
2023-08-15T05:10:25.465Z,97855.08
2023-08-15T05:12:57.740Z,97859.00
2023-08-15T05:15:29.130Z,97861.88
2023-08-15T05:18:00.284Z,97861.37
2023-08-15T05:20:33.722Z,97855.27
2023-08-15T05:23:04.910Z,97855.61
2023-08-15T05:25:36.315Z,97859.11
2023-08-15T05:28:08.640Z,97859.54
2023-08-15T05:30:39.818Z,97862.67
2023-08-15T05:33:11.026Z,97863.30
2023-08-15T05:35:43.054Z,97866.48
2023-08-15T05:38:14.240Z,97869.59
2023-08-15T05:40:45.347Z,97869.84
2023-08-15T05:43:16.343Z,97872.10
2023-08-15T05:45:50.170Z,97872.42
2023-08-15T05:48:21.289Z,97874.33
2023-08-15T05:50:52.562Z,97868.92
2023-08-15T05:53:23.730Z,97874.10
2023-08-15T05:55:55.044Z,97870.46
2023-08-15T05:58:26.224Z,97874.70
2023-08-15T06:00:58.617Z,97870.44
2023-08-15T06:03:49.262Z,97870.83
2023-08-15T06:06:20.802Z,97867.77
2023-08-15T06:08:52.412Z,97868.80
2023-08-15T06:11:23.338Z,97872.77
2023-08-15T06:13:54.348Z,97870.98
2023-08-15T06:16:25.606Z,97872.91
2023-08-15T06:18:56.973Z,97877.80
2023-08-15T06:21:28.331Z,97876.27
2023-08-15T06:23:59.414Z,97881.58
2023-08-15T06:26:30.474Z,97881.54
2023-08-15T06:29:01.463Z,97884.27
2023-08-15T06:31:33.192Z,97884.98
2023-08-15T06:34:05.017Z,97885.19
2023-08-15T06:36:36.246Z,97889.73
2023-08-15T06:39:07.851Z,97893.44
2023-08-15T06:41:38.872Z,97897.23
2023-08-15T06:44:10.050Z,97898.61
2023-08-15T06:46:41.050Z,97893.27
2023-08-15T06:49:12.161Z,97893.73
2023-08-15T06:51:43.151Z,97893.45
2023-08-15T06:54:14.061Z,97899.38
2023-08-15T06:56:45.092Z,97897.88
2023-08-15T06:59:16.315Z,97896.73
2023-08-15T07:01:49.083Z,97899.52
2023-08-15T07:04:20.873Z,97897.56
2023-08-15T07:06:52.001Z,97900.28
2023-08-15T07:09:23.264Z,97887.21
2023-08-15T07:11:54.501Z,97888.78
2023-08-15T07:14:25.865Z,97885.84
2023-08-15T07:16:57.256Z,97885.08
2023-08-15T07:19:28.499Z,97887.60
2023-08-15T07:21:59.398Z,97883.76
2023-08-15T07:24:30.640Z,97879.64
2023-08-15T07:27:02.442Z,97880.82
2023-08-15T07:29:34.017Z,97884.48
2023-08-15T07:32:07.403Z,97882.08
2023-08-15T07:34:38.877Z,97882.66
2023-08-15T07:37:10.000Z,97886.02
2023-08-15T07:39:41.134Z,97880.27
2023-08-15T07:42:12.465Z,97878.67
2023-08-15T07:44:43.559Z,97876.30
2023-08-15T07:47:15.032Z,97876.94
2023-08-15T07:49:46.515Z,97876.73
2023-08-15T07:52:18.281Z,97876.39
2023-08-15T07:54:49.331Z,97875.05
2023-08-15T07:57:20.481Z,97870.59
2023-08-15T07:59:52.595Z,97869.85
2023-08-15T08:02:24.382Z,97868.11
2023-08-15T08:04:55.836Z,97873.11
2023-08-15T08:07:27.125Z,97873.58
2023-08-15T08:09:58.717Z,97869.67
2023-08-15T08:12:29.829Z,97870.30
2023-08-15T08:15:01.180Z,97873.98
2023-08-15T08:17:35.018Z,97868.57
2023-08-15T08:20:12.644Z,97872.33
2023-08-15T08:22:43.542Z,97874.96
2023-08-15T08:25:25.086Z,97868.46
2023-08-15T08:27:56.450Z,97869.55
2023-08-15T08:30:29.698Z,97868.56
2023-08-15T08:33:01.852Z,97869.13
2023-08-15T08:35:33.194Z,97867.48
2023-08-15T08:38:04.940Z,97867.49
2023-08-15T08:40:36.610Z,97864.25
2023-08-15T08:43:08.347Z,97864.77
2023-08-15T08:45:47.696Z,97867.19
2023-08-15T08:48:19.790Z,97871.96
2023-08-15T08:50:52.016Z,97868.10
2023-08-15T08:53:23.125Z,97868.61
2023-08-15T08:55:54.938Z,97864.46
2023-08-15T08:58:29.285Z,97868.02
2023-08-15T09:01:04.018Z,97871.23
2023-08-15T09:03:35.503Z,97869.40
2023-08-15T09:06:07.670Z,97871.89
2023-08-15T09:08:38.712Z,97872.56
2023-08-15T09:11:09.764Z,97872.21
2023-08-15T09:13:49.435Z,97870.20
2023-08-15T09:16:20.591Z,97863.64
2023-08-15T09:18:52.212Z,97866.81
2023-08-15T09:21:24.273Z,97866.94
2023-08-15T09:23:58.198Z,97867.98
2023-08-15T09:26:34.050Z,97862.18
2023-08-15T09:29:06.019Z,97862.02
2023-08-15T09:31:37.338Z,97866.06
2023-08-15T09:34:13.750Z,97865.59
2023-08-15T09:36:44.780Z,97865.04
2023-08-15T09:39:16.451Z,97862.17
2023-08-15T09:41:49.716Z,97861.11
2023-08-15T09:44:34.242Z,97854.75
2023-08-15T09:47:07.877Z,97857.36
2023-08-15T09:49:39.484Z,97855.09
2023-08-15T09:52:12.942Z,97852.02
2023-08-15T09:54:45.230Z,97852.30
2023-08-15T09:57:16.362Z,97849.20
2023-08-15T09:59:47.662Z,97851.33
2023-08-15T10:02:25.044Z,97850.42
2023-08-15T10:05:02.509Z,97845.73
2023-08-15T10:07:35.797Z,97841.14
2023-08-15T10:10:09.256Z,97836.64
2023-08-15T10:12:42.510Z,97834.83
2023-08-15T10:15:14.446Z,97841.42
2023-08-15T10:17:46.778Z,97834.25
2023-08-15T10:20:20.394Z,97826.29
2023-08-15T10:23:00.066Z,97835.83
2023-08-15T10:25:42.480Z,97828.86
2023-08-15T10:28:14.544Z,97819.31
2023-08-15T10:30:52.350Z,97816.80
2023-08-15T10:33:25.757Z,97812.56
2023-08-15T10:36:10.950Z,97814.58
2023-08-15T10:38:46.341Z,97814.48
2023-08-15T10:41:19.059Z,97813.99
2023-08-15T10:43:52.614Z,97807.85
2023-08-15T10:46:29.807Z,97811.95
2023-08-15T10:49:04.646Z,97806.92
2023-08-15T10:51:37.358Z,97806.85
2023-08-15T10:54:10.962Z,97802.36
2023-08-15T10:56:43.343Z,97803.09
2023-08-15T10:59:16.317Z,97799.93
2023-08-15T11:01:49.455Z,97797.79
2023-08-15T11:04:21.547Z,97797.38
2023-08-15T11:06:54.007Z,97794.33
2023-08-15T11:09:30.912Z,97797.05
2023-08-15T11:12:09.593Z,97796.66
2023-08-15T11:14:40.703Z,97791.50
2023-08-15T11:17:13.997Z,97787.40
2023-08-15T11:19:45.803Z,97789.70
2023-08-15T11:22:18.140Z,97791.30
2023-08-15T11:24:53.235Z,97782.66
2023-08-15T11:27:24.758Z,97781.02
2023-08-15T11:30:01.296Z,97779.52
2023-08-15T11:32:35.169Z,97776.27
2023-08-15T11:35:07.759Z,97771.94
2023-08-15T11:37:39.028Z,97774.46
2023-08-15T11:40:11.887Z,97773.63
2023-08-15T11:42:43.135Z,97765.92
2023-08-15T11:45:20.828Z,97763.66
2023-08-15T11:48:02.750Z,97757.86
2023-08-15T11:50:44.251Z,97755.27
2023-08-15T11:53:17.725Z,97752.81
2023-08-15T11:55:49.941Z,97754.85
2023-08-15T11:58:28.914Z,97757.80
2023-08-15T12:01:02.788Z,97754.22
2023-08-15T12:03:35.649Z,97754.29
2023-08-15T12:06:12.932Z,97753.95
2023-08-15T12:08:47.265Z,97749.91
2023-08-15T12:11:24.551Z,97746.55
2023-08-15T12:13:55.582Z,97747.97
2023-08-15T12:16:26.996Z,97744.52
2023-08-15T12:18:58.087Z,97744.69
2023-08-15T12:21:29.152Z,97736.98
2023-08-15T12:24:00.708Z,97734.02
2023-08-15T12:26:31.714Z,97734.35
2023-08-15T12:29:02.706Z,97734.19
2023-08-15T12:31:34.191Z,97734.97
2023-08-15T12:34:05.737Z,97732.74
2023-08-15T12:36:36.883Z,97729.06
2023-08-15T12:39:09.038Z,97727.94
2023-08-15T12:41:40.245Z,97728.17
2023-08-15T12:44:11.339Z,97730.92
2023-08-15T12:46:42.515Z,97735.45
2023-08-15T12:49:13.746Z,97730.09
2023-08-15T12:51:44.758Z,97726.52
2023-08-15T12:54:17.529Z,97728.02
2023-08-15T12:56:49.459Z,97729.27
2023-08-15T12:59:20.644Z,97724.92
2023-08-15T13:01:52.040Z,97728.81
2023-08-15T13:04:23.439Z,97727.80
2023-08-15T13:06:54.446Z,97724.66
2023-08-15T13:09:26.011Z,97723.63
2023-08-15T13:11:57.406Z,97722.66
2023-08-15T13:14:33.607Z,97718.25
2023-08-15T13:17:09.458Z,97715.77
2023-08-15T13:19:42.769Z,97712.84
2023-08-15T13:22:20.982Z,97713.57
2023-08-15T13:24:52.483Z,97708.91
2023-08-15T13:27:23.544Z,97709.27
2023-08-15T13:29:54.776Z,97710.01
2023-08-15T13:32:26.004Z,97709.28
2023-08-15T13:34:57.095Z,97709.24
2023-08-15T13:37:28.098Z,97708.71
2023-08-15T13:40:00.988Z,97706.08
2023-08-15T13:42:38.730Z,97702.90
2023-08-15T13:45:13.198Z,97698.28
2023-08-15T13:47:44.636Z,97698.96
2023-08-15T13:50:15.664Z,97701.20
2023-08-15T13:52:46.995Z,97697.77
2023-08-15T13:55:18.359Z,97694.30
2023-08-15T13:57:49.502Z,97689.71
2023-08-15T14:00:20.969Z,97690.95
2023-08-15T14:02:52.062Z,97687.77
2023-08-15T14:05:23.420Z,97684.55
2023-08-15T14:07:54.905Z,97674.64
2023-08-15T14:10:26.701Z,97677.16
2023-08-15T14:12:57.845Z,97671.68
2023-08-15T14:15:30.090Z,97666.59
2023-08-15T14:18:01.626Z,97664.39
2023-08-15T14:20:35.509Z,97661.56
2023-08-15T14:23:07.264Z,97667.05
2023-08-15T14:25:38.441Z,97664.15
2023-08-15T14:28:09.591Z,97664.14
2023-08-15T14:30:41.495Z,97661.42
2023-08-15T14:33:13.552Z,97662.53
2023-08-15T14:35:44.665Z,97658.27
2023-08-15T14:38:16.362Z,97645.63
2023-08-15T14:40:47.649Z,97649.90
2023-08-15T14:43:18.928Z,97651.77
2023-08-15T14:45:50.213Z,97640.50
2023-08-15T14:48:21.706Z,97638.55
2023-08-15T14:50:53.735Z,97640.44
2023-08-15T14:53:25.939Z,97641.13
2023-08-15T14:55:58.089Z,97640.73
2023-08-15T14:58:29.125Z,97644.85
2023-08-15T15:01:00.136Z,97638.63
2023-08-15T15:03:31.537Z,97640.65
2023-08-15T15:06:02.711Z,97638.30
2023-08-15T15:08:34.693Z,97639.50
2023-08-15T15:11:06.292Z,97634.69
2023-08-15T15:13:37.629Z,97632.55
2023-08-15T15:16:08.708Z,97627.20
2023-08-15T15:18:39.765Z,97630.70
2023-08-15T15:21:10.974Z,97631.15
2023-08-15T15:23:41.948Z,97633.39
2023-08-15T15:26:13.064Z,97628.17
2023-08-15T15:28:44.323Z,97622.98
2023-08-15T15:31:15.479Z,97617.85
2023-08-15T15:33:46.583Z,97616.41
2023-08-15T15:36:17.828Z,97614.57
2023-08-15T15:38:49.618Z,97614.56
2023-08-15T15:41:20.775Z,97613.10
2023-08-15T15:43:51.824Z,97612.58
2023-08-15T15:46:22.762Z,97613.05
2023-08-15T15:48:53.793Z,97612.04
2023-08-15T15:51:24.705Z,97613.45
2023-08-15T15:53:55.966Z,97613.61
2023-08-15T15:56:27.503Z,97616.09
2023-08-15T15:58:58.570Z,97618.92
2023-08-15T16:01:30.406Z,97619.64
2023-08-15T16:04:02.056Z,97618.30
2023-08-15T16:06:33.372Z,97623.90
2023-08-15T16:09:04.588Z,97624.55
2023-08-15T16:11:35.930Z,97625.78
2023-08-15T16:14:07.866Z,97627.86
2023-08-15T16:16:38.847Z,97633.08
2023-08-15T16:19:10.699Z,97642.55
2023-08-15T16:21:42.254Z,97649.12
2023-08-15T16:24:13.362Z,97655.73
2023-08-15T16:26:44.617Z,97659.33
2023-08-15T16:29:15.651Z,97665.95
2023-08-15T16:31:46.673Z,97674.13
2023-08-15T16:34:17.845Z,97685.55
2023-08-15T16:36:49.071Z,97692.55
2023-08-15T16:39:20.230Z,97697.95
2023-08-15T16:41:51.290Z,97702.80
2023-08-15T16:44:22.612Z,97708.21
2023-08-15T16:46:53.668Z,97705.27
2023-08-15T16:49:25.207Z,97703.64
2023-08-15T16:51:56.165Z,97704.92
2023-08-15T16:54:27.385Z,97709.58
2023-08-15T16:56:58.332Z,97717.03
2023-08-15T16:59:29.440Z,97718.08
2023-08-15T17:02:00.899Z,97719.17
2023-08-15T17:04:32.601Z,97721.14
2023-08-15T17:07:04.387Z,97718.99
2023-08-15T17:09:35.473Z,97721.97
2023-08-15T17:12:09.518Z,97727.09
2023-08-15T17:14:40.549Z,97731.41
2023-08-15T17:17:11.693Z,97734.54
2023-08-15T17:19:44.384Z,97734.73
2023-08-15T17:22:16.958Z,97737.41
2023-08-15T17:24:48.793Z,97741.41
2023-08-15T17:27:20.657Z,97736.02
2023-08-15T17:29:52.464Z,97732.12
2023-08-15T17:32:24.054Z,97734.16
2023-08-15T17:34:55.993Z,97730.17
2023-08-15T17:37:27.163Z,97733.25
2023-08-15T17:39:58.366Z,97729.10
2023-08-15T17:42:29.978Z,97729.63
2023-08-15T17:45:01.057Z,97730.66
2023-08-15T17:47:34.004Z,97730.61
2023-08-15T17:50:05.754Z,97729.50
2023-08-15T17:52:37.405Z,97730.69
2023-08-15T17:55:09.608Z,97733.17
2023-08-15T17:57:40.643Z,97733.94
2023-08-15T18:00:14.104Z,97733.23
2023-08-15T18:02:45.841Z,97736.11
2023-08-15T18:05:17.009Z,97740.02
2023-08-15T18:07:48.079Z,97734.38
2023-08-15T18:10:20.579Z,97742.11
2023-08-15T18:12:51.682Z,97740.53
2023-08-15T18:15:23.216Z,97744.48
2023-08-15T18:17:54.379Z,97750.93
2023-08-15T18:20:25.607Z,97756.17
2023-08-15T18:22:56.810Z,97759.05
2023-08-15T18:25:27.815Z,97763.09
2023-08-15T18:27:58.858Z,97767.59
2023-08-15T18:30:29.893Z,97767.24
2023-08-15T18:33:01.102Z,97772.31
2023-08-15T18:35:33.430Z,97771.27
2023-08-15T18:38:04.693Z,97769.55
2023-08-15T18:40:37.619Z,97768.64
2023-08-15T18:43:10.677Z,97768.48
2023-08-15T18:45:48.879Z,97768.04
2023-08-15T18:48:21.899Z,97767.10
2023-08-15T18:50:54.183Z,97769.03
2023-08-15T18:53:25.517Z,97765.33
2023-08-15T18:55:56.670Z,97765.44
2023-08-15T18:58:27.909Z,97768.23
2023-08-15T19:00:58.957Z,97770.87
2023-08-15T19:03:30.203Z,97773.92
2023-08-15T19:06:01.265Z,97770.27
2023-08-15T19:08:34.924Z,97768.39
2023-08-15T19:11:06.627Z,97764.73
2023-08-15T19:13:38.124Z,97773.12
2023-08-15T19:16:09.414Z,97775.42
2023-08-15T19:18:40.482Z,97777.42
2023-08-15T19:21:12.869Z,97776.60
2023-08-15T19:23:45.518Z,97772.91
2023-08-15T19:26:16.799Z,97774.04
2023-08-15T19:28:49.438Z,97777.18
2023-08-15T19:31:20.520Z,97781.29
2023-08-15T19:33:51.947Z,97783.30
2023-08-15T19:36:23.163Z,97786.27
2023-08-15T19:38:54.217Z,97789.77
2023-08-15T19:41:25.435Z,97795.73
2023-08-15T19:43:59.676Z,97801.55
2023-08-15T19:46:30.729Z,97802.77
2023-08-15T19:49:01.622Z,97805.06
2023-08-15T19:51:32.662Z,97807.88
2023-08-15T19:54:03.828Z,97810.16
2023-08-15T19:56:37.108Z,97817.70
2023-08-15T19:59:08.275Z,97822.00
2023-08-15T20:01:39.564Z,97818.67
2023-08-15T20:04:10.703Z,97817.39
2023-08-15T20:06:42.171Z,97816.07
2023-08-15T20:09:13.851Z,97816.70
2023-08-15T20:11:45.086Z,97821.45
2023-08-15T20:14:18.877Z,97819.98
2023-08-15T20:16:50.380Z,97819.20
2023-08-15T20:19:21.381Z,97812.48
2023-08-15T20:21:58.677Z,97813.18
2023-08-15T20:24:29.732Z,97812.77
2023-08-15T20:27:00.889Z,97815.88
2023-08-15T20:29:32.090Z,97816.36
2023-08-15T20:32:03.088Z,97818.41
2023-08-15T20:34:34.121Z,97813.67
2023-08-15T20:37:06.051Z,97815.58
2023-08-15T20:39:37.265Z,97808.14
2023-08-15T20:42:10.247Z,97813.34
2023-08-15T20:44:41.739Z,97809.95
2023-08-15T20:47:13.100Z,97811.88
2023-08-15T20:49:44.636Z,97808.77
2023-08-15T20:52:15.915Z,97809.91
2023-08-15T20:54:47.422Z,97807.02
2023-08-15T20:57:19.752Z,97806.58
2023-08-15T20:59:51.383Z,97802.48
2023-08-15T21:02:22.798Z,97805.85
2023-08-15T21:04:54.415Z,97807.94
2023-08-15T21:07:25.737Z,97809.00
2023-08-15T21:09:57.478Z,97813.90
2023-08-15T21:12:28.530Z,97816.73
2023-08-15T21:14:59.489Z,97822.64
2023-08-15T21:17:30.436Z,97822.91
2023-08-15T21:20:01.359Z,97825.24
2023-08-15T21:22:33.972Z,97822.81
2023-08-15T21:25:05.222Z,97826.50
2023-08-15T21:27:36.432Z,97826.52
2023-08-15T21:30:09.230Z,97830.32
2023-08-15T21:32:40.271Z,97825.23
2023-08-15T21:35:11.935Z,97823.49
2023-08-15T21:37:43.047Z,97822.33
2023-08-15T21:40:15.032Z,97823.55
2023-08-15T21:42:46.126Z,97822.72
2023-08-15T21:45:17.459Z,97822.34
2023-08-15T21:47:49.186Z,97821.61
2023-08-15T21:50:20.320Z,97819.20
2023-08-15T21:52:51.446Z,97822.33
2023-08-15T21:55:22.431Z,97818.05
2023-08-15T21:57:54.650Z,97817.01
2023-08-15T22:00:27.707Z,97821.83
2023-08-15T22:02:59.274Z,97819.73
2023-08-15T22:05:39.933Z,97821.90
2023-08-15T22:08:11.581Z,97826.14
2023-08-15T22:10:43.071Z,97822.89
2023-08-15T22:13:14.315Z,97821.88
2023-08-15T22:15:46.647Z,97818.46
2023-08-15T22:18:21.304Z,97820.67
2023-08-15T22:20:54.482Z,97822.11
2023-08-15T22:23:25.515Z,97826.55
2023-08-15T22:25:56.488Z,97828.11
2023-08-15T22:28:27.689Z,97826.56
2023-08-15T22:30:58.631Z,97829.52
2023-08-15T22:33:29.716Z,97833.26
2023-08-15T22:36:00.837Z,97837.11
2023-08-15T22:38:31.729Z,97841.48
2023-08-15T22:41:02.837Z,97838.11
2023-08-15T22:43:33.791Z,97837.56
2023-08-15T22:46:05.368Z,97835.00
2023-08-15T22:48:36.756Z,97831.73
2023-08-15T22:51:07.815Z,97828.25
2023-08-15T22:53:40.713Z,97826.09
2023-08-15T22:56:11.753Z,97824.04
2023-08-15T22:58:43.023Z,97824.92
2023-08-15T23:01:14.432Z,97827.06
2023-08-15T23:03:45.955Z,97827.27
2023-08-15T23:06:17.385Z,97826.35
2023-08-15T23:08:49.141Z,97825.27
2023-08-15T23:11:20.167Z,97829.27
2023-08-15T23:13:51.223Z,97828.64
2023-08-15T23:16:22.198Z,97831.00
2023-08-15T23:18:53.251Z,97834.39
2023-08-15T23:21:24.244Z,97832.98
2023-08-15T23:23:55.249Z,97834.54
2023-08-15T23:26:26.430Z,97835.23
2023-08-15T23:28:57.470Z,97831.59
2023-08-15T23:31:36.761Z,97829.12
2023-08-15T23:34:08.712Z,97826.07
2023-08-15T23:36:39.749Z,97824.65
2023-08-15T23:39:10.765Z,97822.80
2023-08-15T23:41:41.850Z,97821.37
2023-08-15T23:44:13.119Z,97821.03
2023-08-15T23:46:45.061Z,97824.13
2023-08-15T23:49:16.563Z,97822.82
2023-08-15T23:51:48.530Z,97825.79
2023-08-15T23:54:19.521Z,97831.20
2023-08-15T23:56:50.637Z,97832.41
2023-08-15T23:59:21.945Z,97835.43
